Time;durP1;ratioP1;P1;durP2;ratioP2;P2;SDS_P1;SDS_P2;PMS_P1;PMS_P2;Temp;Humidity;BMP_temperature;BMP_pressure;BME280_temperature;BME280_humidity;BME280_pressure;Samples;Min_cycle;Max_cycle;Signal;HPM_P1;HPM_P2
2023/02/05 00:01:57;;;;;;;20.83;7.97;;;;;;;6.12;100.00;103813.22;5117866;28;20114;-80
2023/02/05 00:04:22;;;;;;;13.77;8.05;;;;;;;6.11;100.00;103815.00;5117677;28;20039;-80
2023/02/05 00:06:48;;;;;;;15.45;8.10;;;;;;;6.12;100.00;103810.59;5117042;28;20020;-80
2023/02/05 00:09:13;;;;;;;20.60;7.97;;;;;;;6.11;100.00;103795.66;5117401;28;20481;-80
2023/02/05 00:11:39;;;;;;;16.73;8.88;;;;;;;6.12;100.00;103806.19;5098522;28;20028;-81
2023/02/05 00:14:05;;;;;;;18.25;8.63;;;;;;;6.11;100.00;103809.72;5116691;28;20172;-81
2023/02/05 00:16:33;;;;;;;18.65;8.63;;;;;;;6.08;100.00;103799.22;5116746;28;20034;-81
2023/02/05 00:18:59;;;;;;;17.27;7.35;;;;;;;6.09;100.00;103808.03;5116725;28;20145;-80
2023/02/05 00:21:24;;;;;;;16.88;8.30;;;;;;;6.07;100.00;103815.13;5116631;28;20069;-79
2023/02/05 00:23:49;;;;;;;17.48;8.10;;;;;;;6.11;100.00;103816.81;5116844;28;20038;-80
2023/02/05 00:26:15;;;;;;;17.50;8.02;;;;;;;6.12;100.00;103808.84;5116702;28;20028;-80
2023/02/05 00:28:40;;;;;;;20.63;6.70;;;;;;;6.12;100.00;103811.47;5115080;28;20024;-79
2023/02/05 00:31:18;;;;;;;13.25;5.78;;;;;;;6.13;100.00;103807.91;5116499;28;20465;-80
2023/02/05 00:33:44;;;;;;;11.57;5.07;;;;;;;6.13;100.00;103807.91;5117009;28;20080;-79
2023/02/05 00:36:12;;;;;;;10.05;3.85;;;;;;;6.17;100.00;103806.06;5115871;28;20028;-79
2023/02/05 00:38:37;;;;;;;7.07;3.35;;;;;;;6.20;100.00;103811.28;5117218;28;20035;-79
2023/02/05 00:41:02;;;;;;;11.13;3.20;;;;;;;6.24;100.00;103812.06;5116853;28;20530;-80
2023/02/05 00:43:28;;;;;;;7.40;3.30;;;;;;;6.26;100.00;103803.19;5117201;28;20081;-80
2023/02/05 00:45:54;;;;;;;7.28;2.50;;;;;;;6.28;100.00;103814.59;5116851;28;20060;-80
2023/02/05 00:48:19;;;;;;;5.50;2.38;;;;;;;6.32;100.00;103813.63;5115967;28;20024;-80
2023/02/05 00:50:47;;;;;;;11.30;3.10;;;;;;;6.33;100.00;103817.16;5116240;28;20031;-79
2023/02/05 00:53:12;;;;;;;5.43;2.60;;;;;;;6.33;100.00;103819.78;5116849;28;20031;-79
2023/02/05 00:55:38;;;;;;;4.45;2.38;;;;;;;6.32;100.00;103812.75;5117514;28;20359;-79
2023/02/05 00:58:03;;;;;;;4.45;2.20;;;;;;;6.31;100.00;103811.00;5119548;28;20035;-79
2023/02/05 01:00:29;;;;;;;4.07;2.00;;;;;;;6.32;100.00;103813.63;5116617;28;20031;-80
2023/02/05 01:02:54;;;;;;;6.00;2.00;;;;;;;6.35;100.00;103813.53;5115653;28;20020;-80
2023/02/05 01:05:19;;;;;;;8.75;2.35;;;;;;;6.34;100.00;103814.47;5116281;28;20032;-80
2023/02/05 01:07:45;;;;;;;2.25;1.80;;;;;;;6.33;100.00;103812.72;5115493;28;20046;-80
2023/02/05 01:10:10;;;;;;;6.00;2.35;;;;;;;6.32;100.00;103807.47;5116395;28;20053;-80
2023/02/05 01:12:36;;;;;;;6.93;2.10;;;;;;;6.26;100.00;103797.03;5114297;28;20126;-80
2023/02/05 01:15:05;;;;;;;9.98;2.40;;;;;;;6.18;100.00;103798.09;5115660;28;20455;-80
2023/02/05 01:17:31;;;;;;;5.38;2.13;;;;;;;6.15;100.00;103799.94;5116025;28;20024;-80
2023/02/05 01:19:57;;;;;;;4.57;2.13;;;;;;;6.14;100.00;103807.00;5116364;28;20023;-80
2023/02/05 01:22:22;;;;;;;4.72;2.10;;;;;;;6.12;100.00;103808.84;5115815;28;20031;-79
2023/02/05 01:24:48;;;;;;;2.65;1.70;;;;;;;6.12;100.00;103807.94;5115520;28;20030;-80
2023/02/05 01:27:13;;;;;;;10.57;2.67;;;;;;;6.09;100.00;103808.03;5115541;28;20066;-80
2023/02/05 01:29:39;;;;;;;3.03;1.70;;;;;;;6.09;100.00;103823.88;5115442;28;20055;-79
2023/02/05 01:32:04;;;;;;;5.80;1.83;;;;;;;6.07;100.00;103815.13;5115404;28;20019;-80
2023/02/05 01:34:29;;;;;;;6.13;2.10;;;;;;;6.04;100.00;103818.72;5115358;28;20028;-79
2023/02/05 01:36:55;;;;;;;4.07;1.85;;;;;;;6.03;100.00;103814.34;5115284;28;20333;-79
2023/02/05 01:39:20;;;;;;;6.57;2.10;;;;;;;6.02;100.00;103809.06;5115104;28;20379;-79
2023/02/05 01:41:46;;;;;;;7.40;1.90;;;;;;;6.03;100.00;103810.81;5113801;28;20120;-80
2023/02/05 01:44:14;;;;;;;7.28;1.83;;;;;;;6.02;100.00;103809.06;5114775;28;20030;-79
2023/02/05 01:46:42;;;;;;;10.68;1.65;;;;;;;6.02;100.00;103795.84;5115010;28;20102;-79
2023/02/05 01:49:14;;;;;;;9.13;2.30;;;;;;;5.97;100.00;103783.63;5114967;28;20027;-80
2023/02/05 01:51:40;;;;;;;3.95;1.50;;;;;;;5.98;100.00;103771.28;5115106;28;20387;-80
2023/02/05 01:54:06;;;;;;;2.92;1.42;;;;;;;5.96;100.00;103781.00;5114473;28;20039;-80
2023/02/05 01:57:00;;;;;;;4.50;1.70;;;;;;;5.99;100.00;103789.75;5114117;28;20413;-79
2023/02/05 01:59:28;;;;;;;5.88;1.50;;;;;;;6.06;100.00;103784.31;5108409;28;20036;-80
2023/02/05 02:01:54;;;;;;;4.65;1.70;;;;;;;6.09;100.00;103778.94;5114719;28;20142;-79
2023/02/05 02:04:33;;;;;;;4.35;1.80;;;;;;;6.05;100.00;103767.59;5113474;28;20412;-78
2023/02/05 02:07:01;;;;;;;3.90;1.70;;;;;;;6.04;100.00;103773.75;5114929;28;20412;-80
2023/02/05 02:09:27;;;;;;;8.80;2.67;;;;;;;6.04;100.00;103763.19;5114955;28;20028;-80
2023/02/05 02:11:53;;;;;;;13.75;1.90;;;;;;;6.02;100.00;103762.38;5114857;28;20512;-79
2023/02/05 02:14:19;;;;;;;8.02;2.45;;;;;;;6.00;100.00;103756.25;5117552;28;20031;-80
2023/02/05 02:16:45;;;;;;;8.85;2.33;;;;;;;5.99;100.00;103755.38;5119105;28;20032;-80
2023/02/05 02:19:25;;;;;;;8.27;2.22;;;;;;;5.99;100.00;103751.88;5115345;28;20031;-80
2023/02/05 02:22:10;;;;;;;8.23;1.80;;;;;;;5.97;100.00;103740.47;5116318;28;20038;-80
2023/02/05 02:25:03;;;;;;;6.80;2.20;;;;;;;5.98;100.00;103735.13;5114311;28;20466;-79
2023/02/05 02:27:38;;;;;;;10.00;2.35;;;;;;;6.01;100.00;103728.91;5114371;28;20460;-79
2023/02/05 02:30:15;;;;;;;9.15;2.13;;;;;;;6.03;100.00;103729.75;5113277;28;20371;-80
2023/02/05 02:32:51;;;;;;;9.48;2.50;;;;;;;6.03;100.00;103734.16;5114071;28;20035;-79
2023/02/05 02:35:59;;;;;;;11.80;2.40;;;;;;;6.06;100.00;103742.00;5113944;28;20027;-79
2023/02/05 02:38:52;;;;;;;13.20;2.92;;;;;;;6.11;100.00;103734.84;5112870;28;20112;-78
2023/02/05 02:41:24;;;;;;;10.30;2.50;;;;;;;6.14;100.00;103726.84;5113460;28;20047;-79
2023/02/05 02:44:08;;;;;;;11.10;3.25;;;;;;;6.12;100.00;103724.22;5114171;28;20161;-80
2023/02/05 02:46:41;;;;;;;6.75;2.35;;;;;;;6.10;100.00;103731.31;5114605;28;20088;-79
2023/02/05 02:49:13;;;;;;;12.32;2.67;;;;;;;6.12;100.00;103732.16;5114145;28;20026;-78
2023/02/05 02:51:40;;;;;;;;;;;;;;;6.12;100.00;103745.38;5114650;28;20027;-78
2023/02/05 02:54:09;;;;;;;7.57;2.63;;;;;;;6.11;100.00;103742.78;5113753;28;19904;-80
2023/02/05 02:56:38;;;;;;;19.70;3.65;;;;;;;6.11;100.00;103742.78;5114586;28;20424;-80
2023/02/05 02:59:09;;;;;;;12.45;3.08;;;;;;;6.08;100.00;103727.84;5113593;28;20506;-80
2023/02/05 03:01:37;;;;;;;10.50;3.50;;;;;;;6.10;100.00;103730.47;5113903;28;20028;-78
2023/02/05 03:04:15;;;;;;;12.02;3.15;;;;;;;6.08;100.00;103741.06;5114065;28;20023;-78
2023/02/05 03:06:46;;;;;;;15.27;3.83;;;;;;;6.11;100.00;103751.56;5113968;28;20034;-80
2023/02/05 03:09:21;;;;;;;12.23;3.33;;;;;;;6.12;100.00;103752.44;5113942;28;20053;-79
2023/02/05 03:11:46;;;;;;;16.65;4.03;;;;;;;6.09;100.00;103752.50;5113230;28;20464;-77
2023/02/05 03:14:12;;;;;;;8.65;3.45;;;;;;;6.01;100.00;103752.69;5112406;28;20026;-80
2023/02/05 03:16:37;;;;;;;14.25;3.30;;;;;;;5.94;100.00;103759.91;5114017;28;20452;-79
2023/02/05 03:19:05;;;;;;;13.27;4.07;;;;;;;5.87;100.00;103749.47;5113531;28;20032;-80
2023/02/05 03:21:45;;;;;;;16.70;4.20;;;;;;;5.81;100.00;103756.66;5113613;28;20031;-80
2023/02/05 03:24:11;;;;;;;18.15;4.25;;;;;;;5.76;100.00;103755.91;5113639;28;20059;-78
2023/02/05 03:26:41;;;;;;;13.60;4.65;;;;;;;5.74;100.00;103757.72;5113272;28;20035;-79
2023/02/05 03:29:10;;;;;;;18.50;4.78;;;;;;;5.69;100.00;103758.72;5113603;28;20031;-80
2023/02/05 03:31:35;;;;;;;11.85;4.50;;;;;;;5.65;100.00;103756.16;5114342;28;20461;-81
2023/02/05 03:34:35;;;;;;;16.23;5.43;;;;;;;5.60;100.00;103759.81;5113532;28;20027;-83
2023/02/05 03:37:10;;;;;;;13.45;5.03;;;;;;;5.59;100.00;103756.28;5113709;28;20030;-82
2023/02/05 03:39:58;;;;;;;13.27;4.68;;;;;;;5.58;100.00;103751.03;5113768;28;20103;-83
2023/02/05 03:43:00;;;;;;;12.70;4.25;;;;;;;5.53;100.00;103740.59;5113752;28;20348;-83
2023/02/05 03:45:46;;;;;;;10.32;4.55;;;;;;;5.51;100.00;103760.00;5113908;28;20077;-84
2023/02/05 03:48:34;;;;;;;15.00;5.03;;;;;;;5.49;100.00;103757.41;5115644;28;20048;-84
2023/02/05 03:51:12;;;;;;;10.43;4.53;;;;;;;5.50;100.00;103771.50;5114334;28;20352;-83
2023/02/05 03:54:19;;;;;;;9.95;4.88;;;;;;;5.49;100.00;103773.25;5114204;28;20023;-84
2023/02/05 03:56:54;;;;;;;9.80;4.07;;;;;;;5.49;100.00;103773.25;5105025;28;20051;-82
2023/02/05 03:59:21;;;;;;;9.93;4.15;;;;;;;5.50;100.00;103780.28;5114303;28;20016;-84
2023/02/05 04:01:46;;;;;;;10.70;4.47;;;;;;;5.49;100.00;103778.53;5113768;28;20119;-82
2023/02/05 04:04:12;;;;;;;10.88;4.90;;;;;;;5.49;100.00;103794.38;5113337;28;20407;-84
2023/02/05 04:06:38;;;;;;;9.63;4.70;;;;;;;5.47;100.00;103793.56;5114189;28;20020;-85
2023/02/05 04:09:04;;;;;;;6.15;4.30;;;;;;;5.50;100.00;103795.25;5113660;28;20024;-85
2023/02/05 04:11:31;;;;;;;8.38;4.43;;;;;;;5.52;100.00;103801.38;5113817;28;20106;-86
2023/02/05 04:13:57;;;;;;;8.85;4.38;;;;;;;5.49;100.00;103804.94;5113953;28;20027;-88
2023/02/05 04:16:22;;;;;;;9.30;4.55;;;;;;;5.49;100.00;103807.59;5113708;28;20416;-87
2023/02/05 04:18:48;;;;;;;10.25;3.80;;;;;;;5.46;100.00;103805.00;5116002;28;20428;-85
2023/02/05 04:21:13;;;;;;;8.55;4.10;;;;;;;5.42;100.00;103796.28;5118023;28;20095;-88
2023/02/05 04:23:38;;;;;;;13.32;3.85;;;;;;;5.38;100.00;103801.69;5117481;28;20237;-86
2023/02/05 04:26:04;;;;;;;7.82;2.78;;;;;;;5.35;100.00;103805.25;5117422;28;20027;-86
2023/02/05 04:28:29;;;;;;;8.57;2.83;;;;;;;5.26;100.00;103814.22;5117529;28;20027;-84
2023/02/05 04:30:55;;;;;;;13.68;2.10;;;;;;;5.16;100.00;103812.66;5117228;28;20032;-84
2023/02/05 04:33:20;;;;;;;14.13;1.60;;;;;;;5.08;100.00;103820.75;5117562;28;20023;-84
2023/02/05 04:35:45;;;;;;;11.85;1.40;;;;;;;5.03;100.00;103819.97;5116179;28;20077;-83
2023/02/05 04:38:10;;;;;;;13.65;1.90;;;;;;;5.01;100.00;103828.81;5117147;28;20383;-84
2023/02/05 04:40:36;;;;;;;13.02;2.15;;;;;;;4.97;100.00;103838.56;5116828;28;20144;-84
2023/02/05 04:43:01;;;;;;;12.57;2.10;;;;;;;4.94;100.00;103842.13;5116749;28;20121;-83
2023/02/05 04:45:29;;;;;;;14.55;2.22;;;;;;;4.90;100.00;103850.13;5117072;28;20057;-86
2023/02/05 04:47:56;;;;;;;17.80;1.60;;;;;;;4.83;100.00;103844.09;5116763;28;20081;-83
2023/02/05 04:50:21;;;;;;;17.08;1.90;;;;;;;4.80;100.00;103859.97;5116011;28;20027;-87
2023/02/05 04:52:48;;;;;;;18.70;2.38;;;;;;;4.75;100.00;103860.06;5116457;28;20475;-86
2023/02/05 04:55:13;;;;;;;20.73;2.22;;;;;;;4.73;100.00;103860.97;5116653;28;20055;-86
2023/02/05 04:57:39;;;;;;;17.25;2.65;;;;;;;4.71;100.00;103866.28;5116799;28;20036;-85
2023/02/05 05:00:04;;;;;;;24.38;2.88;;;;;;;4.67;100.00;103872.53;5115257;28;20028;-85
2023/02/05 05:02:30;;;;;;;12.88;2.25;;;;;;;4.65;100.00;103876.94;5116991;28;20030;-83
2023/02/05 05:04:56;;;;;;;19.05;2.22;;;;;;;4.62;100.00;103870.88;5116086;28;20032;-83
2023/02/05 05:07:21;;;;;;;25.23;2.78;;;;;;;4.59;100.00;103885.81;5116813;28;20020;-84
2023/02/05 05:09:46;;;;;;;19.55;1.98;;;;;;;4.57;100.00;103892.91;5115886;28;20067;-84
2023/02/05 05:12:12;;;;;;;28.63;2.70;;;;;;;4.49;100.00;103896.56;5116017;28;20432;-83
2023/02/05 05:14:37;;;;;;;30.52;3.25;;;;;;;4.40;100.00;103902.84;5116010;28;20030;-83
2023/02/05 05:17:03;;;;;;;20.02;2.70;;;;;;;4.34;100.00;103913.47;5116089;28;20573;-85
2023/02/05 05:19:28;;;;;;;17.17;2.60;;;;;;;4.23;100.00;103914.50;5115719;28;20024;-83
2023/02/05 05:21:54;;;;;;;15.45;1.85;;;;;;;4.12;100.00;103911.19;5116158;28;20394;-85
2023/02/05 05:24:19;;;;;;;18.00;2.38;;;;;;;4.03;100.00;103908.66;5116393;28;20024;-84
2023/02/05 05:26:45;;;;;;;15.57;2.00;;;;;;;3.97;100.00;103916.63;5116067;28;20310;-83
2023/02/05 05:29:11;;;;;;;10.77;1.48;;;;;;;3.89;100.00;103912.34;5115475;28;20027;-82
2023/02/05 05:31:37;;;;;;;14.68;2.38;;;;;;;3.81;100.00;103910.72;5115355;28;20032;-85
2023/02/05 05:34:02;;;;;;;12.85;1.98;;;;;;;3.75;100.00;103922.19;5116381;28;20401;-84
2023/02/05 05:36:28;;;;;;;13.95;1.60;;;;;;;3.74;100.00;103920.44;5116048;28;20043;-84
2023/02/05 05:38:54;;;;;;;15.65;2.15;;;;;;;3.79;100.00;103926.53;5115891;28;20031;-84
2023/02/05 05:44:08;;;;;;;17.77;2.10;;;;;;;3.89;100.00;103936.03;5116109;28;20092;-83
2023/02/05 05:46:34;;;;;;;14.68;2.25;;;;;;;3.97;100.00;103925.44;5115539;28;20103;-84
2023/02/05 05:49:01;;;;;;;20.15;2.83;;;;;;;4.03;100.00;103932.34;5115128;28;20088;-82
2023/02/05 05:51:28;;;;;;;21.33;3.28;;;;;;;4.09;100.00;103940.22;5115839;28;20027;-82
2023/02/05 05:53:54;;;;;;;18.38;2.30;;;;;;;4.13;100.00;103936.63;5114413;28;20325;-81
2023/02/05 05:56:20;;;;;;;13.93;2.08;;;;;;;4.17;100.00;103932.19;5114699;28;20062;-82
2023/02/05 05:58:46;;;;;;;18.50;2.47;;;;;;;4.22;100.00;103933.88;5115010;28;20054;-82
2023/02/05 06:01:14;;;;;;;16.50;2.10;;;;;;;4.23;100.00;103932.09;5114554;28;20051;-81
2023/02/05 06:03:39;;;;;;;19.27;2.92;;;;;;;4.25;100.00;103954.03;5114901;28;20019;-81
2023/02/05 06:06:07;;;;;;;21.90;2.75;;;;;;;4.27;100.00;103952.25;5114816;28;20084;-80
2023/02/05 06:08:32;;;;;;;16.88;2.25;;;;;;;4.31;100.00;103931.97;5115364;28;20072;-82
2023/02/05 06:10:58;;;;;;;18.02;2.40;;;;;;;4.33;100.00;103944.25;5114901;28;20079;-81
2023/02/05 06:13:24;;;;;;;28.15;3.17;;;;;;;4.34;100.00;103951.25;5113473;28;20039;-82
2023/02/05 06:15:49;;;;;;;19.10;2.88;;;;;;;4.35;100.00;103952.16;5114816;28;20372;-82
2023/02/05 06:18:15;;;;;;;15.30;2.75;;;;;;;4.35;100.00;103957.41;5114805;28;20032;-82
2023/02/05 06:20:41;;;;;;;11.48;2.22;;;;;;;4.35;100.00;103958.28;5113341;28;20032;-81
2023/02/05 06:23:06;;;;;;;20.02;2.92;;;;;;;4.36;100.00;103964.41;5114433;28;20051;-81
2023/02/05 06:25:31;;;;;;;21.73;3.75;;;;;;;4.37;100.00;103972.34;5114274;28;20032;-81
2023/02/05 06:27:57;;;;;;;16.90;2.80;;;;;;;4.36;100.00;103967.94;5114449;28;20024;-81
2023/02/05 06:30:22;;;;;;;21.40;3.13;;;;;;;4.35;100.00;103963.56;5114462;28;20064;-82
2023/02/05 06:32:48;;;;;;;19.83;3.70;;;;;;;4.36;100.00;103983.75;5114419;28;20066;-83
2023/02/05 06:35:13;;;;;;;24.60;2.40;;;;;;;4.36;100.00;103982.88;5114821;28;20359;-82
2023/02/05 06:37:39;;;;;;;23.92;3.30;;;;;;;4.31;100.00;103989.97;5114956;28;20072;-82
2023/02/05 06:40:04;;;;;;;28.90;3.58;;;;;;;4.27;100.00;104002.34;5114477;28;20383;-82
2023/02/05 06:42:30;;;;;;;18.30;2.75;;;;;;;4.29;100.00;104004.97;5112902;28;20368;-82
2023/02/05 06:44:55;;;;;;;27.40;3.15;;;;;;;4.31;100.00;104018.97;5114430;28;20024;-82
2023/02/05 06:47:21;;;;;;;20.80;3.17;;;;;;;4.34;100.00;104024.22;5114521;28;20059;-82
2023/02/05 06:49:46;;;;;;;27.30;4.13;;;;;;;4.34;100.00;104019.78;5114040;28;20034;-82
2023/02/05 06:52:11;;;;;;;23.17;3.67;;;;;;;4.36;100.00;104027.69;5114528;28;20056;-80
2023/02/05 06:54:37;;;;;;;15.07;2.70;;;;;;;4.36;100.00;104019.78;5114157;28;20138;-81
2023/02/05 06:57:03;;;;;;;23.70;2.70;;;;;;;4.37;100.00;104037.34;5115190;28;20028;-80
2023/02/05 06:59:28;;;;;;;22.05;3.08;;;;;;;4.38;100.00;104036.47;5116401;28;20051;-80
2023/02/05 07:01:53;;;;;;;18.30;2.88;;;;;;;4.37;100.00;104040.00;5114370;28;20053;-81
2023/02/05 07:04:19;;;;;;;22.05;3.10;;;;;;;4.38;100.00;104057.56;5114072;28;20122;-81
2023/02/05 07:06:44;;;;;;;26.55;3.20;;;;;;;4.36;100.00;104061.97;5114037;28;20016;-80
2023/02/05 07:09:10;;;;;;;20.63;2.60;;;;;;;4.36;100.00;104067.22;5114293;28;20103;-79
2023/02/05 07:11:35;;;;;;;31.70;4.80;;;;;;;4.38;100.00;104062.84;5114101;28;20023;-81
2023/02/05 07:14:01;;;;;;;17.98;2.88;;;;;;;4.41;100.00;104068.06;5114089;28;20036;-81
2023/02/05 07:16:28;;;;;;;20.33;3.00;;;;;;;4.45;100.00;104080.31;5113928;28;20073;-81
2023/02/05 07:18:53;;;;;;;19.40;2.38;;;;;;;4.47;100.00;104096.13;5114339;28;20451;-81
2023/02/05 07:21:19;;;;;;;27.02;3.13;;;;;;;4.47;100.00;104086.44;5114255;28;20112;-80
2023/02/05 07:23:44;;;;;;;20.85;2.88;;;;;;;4.47;100.00;104096.13;5114821;28;20059;-79
2023/02/05 07:26:12;;;;;;;23.48;3.22;;;;;;;4.44;100.00;104098.81;5117754;28;20023;-79
2023/02/05 07:28:38;;;;;;;14.90;2.50;;;;;;;4.43;100.00;104108.47;5119494;28;20028;-78
2023/02/05 07:31:09;;;;;;;22.20;3.25;;;;;;;4.44;100.00;104112.00;5123909;28;20056;-79
2023/02/05 07:33:37;;;;;;;13.67;2.77;;;;;;;4.45;100.00;104116.34;5124883;28;20047;-79
2023/02/05 07:36:07;;;;;;;25.08;2.83;;;;;;;4.47;100.00;104117.22;5114239;28;20277;-78
2023/02/05 07:38:34;;;;;;;17.35;2.95;;;;;;;4.49;100.00;104120.69;5114136;28;20027;-79
2023/02/05 07:41:03;;;;;;;29.40;3.60;;;;;;;4.54;100.00;104119.75;5113737;28;20032;-78
2023/02/05 07:43:29;;;;;;;22.88;3.13;;;;;;;4.57;100.00;104132.91;5113554;28;20039;-79
2023/02/05 07:45:59;;;;;;;19.67;3.08;;;;;;;4.65;100.00;104126.66;5113460;28;20046;-79
2023/02/05 07:48:24;;;;;;;27.27;2.85;;;;;;;4.74;100.00;104122.13;5113441;28;20041;-79
2023/02/05 07:50:51;;;;;;;24.48;3.70;;;;;;;4.81;100.00;104117.66;5113599;28;20019;-78
2023/02/05 07:53:16;;;;;;;25.25;3.53;;;;;;;4.86;100.00;104125.50;5114388;28;20043;-78
2023/02/05 07:55:42;;;;;;;33.25;2.67;;;;;;;4.87;100.00;104125.47;5117829;28;20048;-79
2023/02/05 07:58:07;;;;;;;17.20;3.45;;;;;;;4.89;100.00;104128.94;5116607;28;20027;-79
2023/02/05 08:00:33;;;;;;;23.42;3.42;;;;;;;4.93;100.00;104127.16;5117313;28;20023;-80
2023/02/05 08:02:59;;;;;;;26.38;3.60;;;;;;;4.97;100.00;104127.97;5117577;28;20028;-80
2023/02/05 08:05:25;;;;;;;32.47;4.28;;;;;;;5.01;100.00;104143.75;5117204;28;20031;-80
2023/02/05 08:07:50;;;;;;;34.40;5.32;;;;;;;5.05;100.00;104121.69;5117302;28;20028;-79
2023/02/05 08:10:15;;;;;;;34.50;5.35;;;;;;;5.07;100.00;104119.03;5115968;28;20028;-78
2023/02/05 08:12:41;;;;;;;34.92;4.10;;;;;;;5.06;100.00;104141.03;5116908;28;20087;-79
2023/02/05 08:15:07;;;;;;;37.58;5.22;;;;;;;5.06;100.00;104141.03;5117128;28;20058;-79
2023/02/05 08:17:33;;;;;;;36.92;5.50;;;;;;;5.10;100.00;104148.88;5117515;28;20108;-79
2023/02/05 08:20:05;;;;;;;29.80;3.35;;;;;;;5.25;100.00;104139.88;5117607;28;20063;-82
2023/02/05 08:22:32;;;;;;;33.03;3.70;;;;;;;5.44;100.00;104143.09;5115916;28;20367;-80
2023/02/05 08:24:58;;;;;;;39.63;4.82;;;;;;;5.59;100.00;104151.69;5116966;28;20042;-79
2023/02/05 08:27:23;;;;;;;43.25;4.43;;;;;;;5.60;100.00;104150.78;5116830;28;20027;-83
2023/02/05 08:29:48;;;;;;;42.25;4.70;;;;;;;5.56;100.00;104162.28;5117085;28;20034;-80
2023/02/05 08:32:14;;;;;;;30.05;4.18;;;;;;;5.56;100.00;104160.50;5116750;28;20066;-82
2023/02/05 08:34:39;;;;;;;35.97;4.85;;;;;;;5.51;100.00;104161.47;5117044;28;20032;-80
2023/02/05 08:37:05;;;;;;;36.45;4.72;;;;;;;5.50;100.00;104171.19;5116889;28;20111;-79
2023/02/05 08:39:30;;;;;;;29.13;4.10;;;;;;;5.47;100.00;104172.09;5116591;28;20062;-81
2023/02/05 08:41:55;;;;;;;39.45;4.68;;;;;;;5.50;100.00;104173.81;5116508;28;20062;-81
2023/02/05 08:44:21;;;;;;;28.88;4.93;;;;;;;5.54;100.00;104174.63;5116573;28;20031;-80
2023/02/05 08:46:46;;;;;;;40.50;4.93;;;;;;;5.58;100.00;104187.81;5116559;28;20030;-80
2023/02/05 08:49:11;;;;;;;42.28;4.55;;;;;;;5.59;100.00;104178.97;5117372;28;20407;-82
2023/02/05 08:51:37;;;;;;;45.33;4.18;;;;;;;5.56;100.00;104186.94;5116213;28;20023;-80
2023/02/05 08:54:04;;;;;;;31.95;4.38;;;;;;;5.55;100.00;104202.81;5116146;28;20435;-79
2023/02/05 08:56:30;;;;;;;30.80;4.25;;;;;;;5.51;100.00;104203.75;5116910;28;20051;-82
2023/02/05 08:58:56;;;;;;;43.13;4.63;;;;;;;5.53;100.00;104212.53;5116841;28;20032;-80
2023/02/05 09:01:21;;;;;;;31.13;4.00;;;;;;;5.53;100.00;104213.41;5116081;28;20039;-80
2023/02/05 09:03:47;;;;;;;38.00;5.35;;;;;;;5.57;100.00;104209.81;5115912;28;20357;-82
2023/02/05 09:06:14;;;;;;;36.88;6.20;;;;;;;5.65;100.00;104212.34;5115919;28;20051;-83
2023/02/05 09:08:40;;;;;;;27.95;3.75;;;;;;;5.70;100.00;104210.47;5116151;28;20107;-81
2023/02/05 09:11:06;;;;;;;41.67;4.97;;;;;;;5.80;100.00;104205.94;5115903;28;20057;-81
2023/02/05 09:13:33;;;;;;;28.02;3.67;;;;;;;5.87;100.00;104209.31;5116046;28;20049;-81
2023/02/05 09:15:58;;;;;;;43.35;5.57;;;;;;;5.91;100.00;104200.47;5116405;28;20027;-82
2023/02/05 09:18:24;;;;;;;31.35;5.10;;;;;;;5.92;100.00;104205.72;5115849;28;20035;-80
2023/02/05 09:20:50;;;;;;;27.30;3.92;;;;;;;5.91;100.00;104205.75;5117040;28;20375;-82
2023/02/05 09:23:16;;;;;;;40.28;5.57;;;;;;;5.83;100.00;104198.81;5115618;28;20024;-80
2023/02/05 09:25:42;;;;;;;35.65;5.43;;;;;;;5.83;100.00;104188.25;5115829;28;20023;-81
2023/02/05 09:28:10;;;;;;;36.85;5.22;;;;;;;5.86;100.00;104176.75;5115629;28;20032;-81
2023/02/05 09:30:41;;;;;;;34.95;4.80;;;;;;;5.98;100.00;104173.91;5114287;28;20352;-81
2023/02/05 09:33:07;;;;;;;38.03;4.22;;;;;;;6.03;100.00;104188.84;5116074;28;20031;-82
2023/02/05 09:35:33;;;;;;;37.65;5.57;;;;;;;5.98;100.00;104187.13;5115957;28;20031;-80
2023/02/05 09:38:01;;;;;;;29.38;4.60;;;;;;;6.03;100.00;104195.00;5115550;28;20119;-79
2023/02/05 09:40:31;;;;;;;36.17;5.25;;;;;;;6.00;100.00;104195.03;5115365;28;20031;-84
2023/02/05 09:43:11;;;;;;;34.83;5.55;;;;;;;6.03;100.00;104171.22;5115305;28;20049;-80
2023/02/05 09:45:49;;;;;;;33.50;5.43;;;;;;;6.10;100.00;104162.25;5114688;28;20039;-81
2023/02/05 09:48:48;;;;;;;39.38;5.38;;;;;;;6.22;100.00;104195.53;5114901;28;20023;-81
2023/02/05 09:51:16;;;;;;;39.70;5.10;;;;;;;6.34;100.00;104202.34;5114951;28;20030;-79
2023/02/05 09:53:45;;;;;;;40.55;5.10;;;;;;;6.36;100.00;104208.50;5113977;28;20061;-79
2023/02/05 09:56:12;;;;;;;34.45;4.85;;;;;;;6.44;100.00;104209.22;5114678;28;20102;-79
2023/02/05 09:58:45;;;;;;;43.28;5.50;;;;;;;6.59;100.00;104223.06;5115656;28;20028;-81
2023/02/05 10:01:21;;;;;;;34.83;4.22;;;;;;;6.71;100.00;104228.97;5114744;28;20526;-81
2023/02/05 10:03:53;;;;;;;34.75;4.85;;;;;;;6.77;100.00;104227.97;5114609;28;20083;-80
2023/02/05 10:06:18;;;;;;;37.42;5.00;;;;;;;6.65;100.00;104229.09;5115139;28;20035;-80
2023/02/05 10:08:53;;;;;;;34.50;5.68;;;;;;;6.45;100.00;104218.91;5114463;28;20031;-77
2023/02/05 10:11:38;;;;;;;30.48;3.92;;;;;;;6.58;100.00;104235.41;5114335;28;20020;-78
2023/02/05 10:14:37;;;;;;;38.97;4.57;;;;;;;6.64;100.00;104245.00;5114353;28;20019;-78
2023/02/05 10:17:28;;;;;;;26.88;4.75;;;;;;;6.53;100.00;104213.47;5113889;28;20020;-80
2023/02/05 10:19:59;;;;;;;44.05;4.90;;;;;;;6.48;100.00;104220.63;5114664;28;20024;-75
2023/02/05 10:22:48;;;;;;;33.00;3.95;;;;;;;6.49;100.00;104211.78;5114565;28;20136;-78
2023/02/05 10:25:37;;;;;;;28.17;4.47;;;;;;;6.42;100.00;104210.16;5114475;28;20047;-82
2023/02/05 10:28:36;;;;;;;39.88;4.72;;;;;;;6.32;100.00;104210.31;5114729;28;20046;-79
2023/02/05 10:31:26;;;;;;;36.00;5.70;;;;;;;6.38;100.00;104208.47;5114511;28;20081;-80
2023/02/05 10:33:57;;;;;;;32.70;5.28;;;;;;;6.38;100.00;104203.19;5113768;28;20364;-78
2023/02/05 10:36:25;;;;;;;32.33;4.72;;;;;;;6.44;100.00;104219.81;5114650;28;20031;-79
2023/02/05 10:38:54;;;;;;;30.75;4.45;;;;;;;6.77;100.00;104235.06;5114061;28;20081;-77
2023/02/05 10:41:28;;;;;;;36.05;5.47;;;;;;;6.88;100.00;104235.69;5114011;28;20046;-83
2023/02/05 10:44:21;;;;;;;28.83;4.50;;;;;;;7.58;100.00;104232.38;5113929;28;20139;-77
2023/02/05 10:46:52;;;;;;;38.50;5.00;;;;;;;8.19;100.00;104237.06;5114339;28;20027;-80
2023/02/05 10:49:22;;;;;;;;;;;;;;;8.19;100.00;104234.41;5114818;28;20425;-81
2023/02/05 10:51:47;;;;;;;28.35;6.05;;;;;;;8.54;100.00;104220.22;5114230;28;19904;-80
2023/02/05 10:54:27;;;;;;;49.50;5.70;;;;;;;8.30;100.00;104224.41;5114597;28;20198;-78
2023/02/05 10:56:54;;;;;;;37.33;5.20;;;;;;;8.22;100.00;104232.53;5114462;28;20059;-81
2023/02/05 10:59:23;;;;;;;37.13;5.40;;;;;;;8.69;100.00;104224.22;5114279;28;20408;-79
2023/02/05 11:01:50;;;;;;;35.03;4.60;;;;;;;9.33;100.00;104229.41;5113989;28;20053;-77
2023/02/05 11:04:24;;;;;;;29.80;6.93;;;;;;;8.92;100.00;104228.00;5114145;28;20032;-79
2023/02/05 11:06:51;;;;;;;32.25;4.53;;;;;;;9.16;100.00;104237.00;5113709;28;20102;-78
2023/02/05 11:09:23;;;;;;;28.33;4.20;;;;;;;9.41;100.00;104220.31;5113760;28;20452;-80
2023/02/05 11:11:57;;;;;;;;;;;;;;;9.35;100.00;104219.56;5114310;28;20039;-80
2023/02/05 11:14:35;;;;;;;37.45;5.60;;;;;;;9.28;100.00;104239.28;5113755;28;19911;-80
2023/02/05 11:17:16;;;;;;;34.10;4.85;;;;;;;8.90;100.00;104238.66;5114129;28;20026;-80
2023/02/05 11:20:13;;;;;;;31.75;4.55;;;;;;;8.54;100.00;104214.91;5113858;28;20111;-79
2023/02/05 11:22:39;;;;;;;39.78;5.15;;;;;;;8.67;100.00;104206.59;5105379;28;20032;-76
2023/02/05 11:25:18;;;;;;;35.30;5.30;;;;;;;8.57;100.00;104200.66;5113783;28;20443;-77
2023/02/05 11:27:57;;;;;;;35.60;4.85;;;;;;;8.35;100.00;104203.91;5113359;28;20024;-75
2023/02/05 11:30:26;;;;;;;37.35;5.05;;;;;;;8.24;100.00;104212.16;5117784;28;20035;-75
2023/02/05 11:32:52;;;;;;;32.92;4.35;;;;;;;8.09;100.00;104220.50;5117806;28;20019;-75